createdAt,value
2018-11-27T00:00:38.735Z,1.22
2018-11-27T00:03:08.362Z,1.16
2018-11-27T00:05:38.263Z,1.20
2018-11-27T00:08:13.606Z,1.21
2018-11-27T00:10:42.434Z,1.25
2018-11-27T00:13:11.295Z,1.25
2018-11-27T00:15:40.154Z,1.22
2018-11-27T00:18:08.979Z,1.18
2018-11-27T00:20:37.825Z,1.15
2018-11-27T00:23:06.705Z,1.11
2018-11-27T00:25:36.134Z,1.19
2018-11-27T00:28:06.004Z,1.17
2018-11-27T00:30:34.836Z,1.18
2018-11-27T00:33:03.680Z,1.19
2018-11-27T00:35:33.539Z,1.21
2018-11-27T00:38:02.384Z,1.22
2018-11-27T00:40:31.313Z,1.27
2018-11-27T00:43:00.159Z,1.22
2018-11-27T00:45:29.028Z,1.23
2018-11-27T00:47:57.908Z,1.22
2018-11-27T00:50:27.052Z,1.24
2018-11-27T00:52:55.890Z,1.24
2018-11-27T00:55:24.723Z,1.29
2018-11-27T00:57:53.743Z,1.28
2018-11-27T01:00:23.773Z,1.28
2018-11-27T01:02:52.581Z,1.30
2018-11-27T01:05:22.779Z,1.19
2018-11-27T01:07:51.702Z,1.26
2018-11-27T01:10:21.634Z,1.22
2018-11-27T01:12:50.646Z,1.21
2018-11-27T01:15:19.486Z,1.23
2018-11-27T01:17:54.430Z,1.28
2018-11-27T01:20:23.674Z,1.34
2018-11-27T01:22:52.471Z,1.32
2018-11-27T01:25:21.323Z,1.28
2018-11-27T01:27:50.162Z,1.35
2018-11-27T01:30:21.103Z,1.31
2018-11-27T01:32:50.428Z,1.34
2018-11-27T01:35:21.701Z,1.38
2018-11-27T01:37:51.609Z,1.43
2018-11-27T01:40:22.475Z,1.38
2018-11-27T01:42:52.335Z,1.45
2018-11-27T01:45:21.814Z,1.42
2018-11-27T01:47:50.980Z,1.39
2018-11-27T01:50:20.335Z,1.44
2018-11-27T01:52:49.294Z,1.43
2018-11-27T01:55:19.164Z,1.46
2018-11-27T01:57:48.034Z,1.44
2018-11-27T02:00:21.761Z,1.46
2018-11-27T02:02:50.935Z,1.45
2018-11-27T02:05:19.787Z,1.43
2018-11-27T02:07:48.638Z,1.48
2018-11-27T02:10:17.627Z,1.50
2018-11-27T02:12:47.442Z,1.44
2018-11-27T02:15:17.558Z,1.44
2018-11-27T02:17:46.426Z,1.47
2018-11-27T02:20:15.319Z,1.43
2018-11-27T02:22:44.215Z,1.49
2018-11-27T02:25:16.283Z,1.43
2018-11-27T02:27:45.142Z,1.49
2018-11-27T02:30:18.326Z,1.49
2018-11-27T02:32:47.277Z,1.43
2018-11-27T02:35:17.843Z,1.51
2018-11-27T02:37:47.596Z,1.47
2018-11-27T02:40:17.357Z,1.44
2018-11-27T02:42:46.295Z,1.45
2018-11-27T02:45:17.710Z,1.46
2018-11-27T02:47:47.497Z,1.44
2018-11-27T02:50:18.357Z,1.42
2018-11-27T02:52:47.282Z,1.45
2018-11-27T02:55:18.127Z,1.51
2018-11-27T02:57:47.010Z,1.53
2018-11-27T03:00:18.863Z,1.56
2018-11-27T03:02:47.702Z,1.55
2018-11-27T03:05:20.167Z,1.59
2018-11-27T03:07:49.032Z,1.64
2018-11-27T03:10:17.903Z,1.60
2018-11-27T03:12:46.909Z,1.59
2018-11-27T03:15:16.765Z,1.55
2018-11-27T03:17:45.605Z,1.54
2018-11-27T03:20:15.692Z,1.61
2018-11-27T03:22:44.557Z,1.63
2018-11-27T03:25:17.312Z,1.60
2018-11-27T03:27:46.959Z,1.56
2018-11-27T03:30:16.738Z,1.62
2018-11-27T03:32:45.864Z,1.65
2018-11-27T03:35:16.647Z,1.65
2018-11-27T03:37:47.259Z,1.62
2018-11-27T03:40:15.980Z,1.66
2018-11-27T03:42:44.878Z,1.70
2018-11-27T03:45:14.310Z,1.68
2018-11-27T03:47:43.388Z,1.71
2018-11-27T03:50:17.597Z,1.71
2018-11-27T03:52:46.494Z,1.68
2018-11-27T03:55:15.322Z,1.72
2018-11-27T03:57:44.145Z,1.75
2018-11-27T04:00:22.350Z,1.71
2018-11-27T04:03:25.679Z,1.71
2018-11-27T04:05:54.534Z,1.72
2018-11-27T04:08:23.362Z,1.78
2018-11-27T04:10:52.200Z,1.79
2018-11-27T04:13:21.122Z,1.79
2018-11-27T04:15:49.983Z,1.83
2018-11-27T04:18:18.868Z,1.85
2018-11-27T04:20:48.128Z,1.83
2018-11-27T04:23:16.976Z,1.85
2018-11-27T04:25:45.912Z,1.84
2018-11-27T04:28:14.768Z,1.89
2018-11-27T04:30:43.631Z,1.87
2018-11-27T04:33:12.479Z,1.85
2018-11-27T04:35:41.327Z,1.88
2018-11-27T04:38:10.188Z,1.90
2018-11-27T04:40:39.099Z,1.93
2018-11-27T04:43:08.002Z,1.92
2018-11-27T04:45:36.859Z,1.90
2018-11-27T04:48:05.927Z,1.94
2018-11-27T04:50:34.779Z,1.95
2018-11-27T04:53:03.644Z,1.97
2018-11-27T04:55:32.527Z,2.01
2018-11-27T04:58:01.427Z,2.03
2018-11-27T05:00:30.327Z,2.05
2018-11-27T05:02:59.203Z,2.06
2018-11-27T05:05:28.102Z,2.13
2018-11-27T05:07:56.934Z,2.07
2018-11-27T05:10:25.763Z,2.06
2018-11-27T05:12:54.613Z,2.05
2018-11-27T05:15:25.148Z,2.09
2018-11-27T05:17:55.321Z,2.07
2018-11-27T05:20:24.216Z,2.08
2018-11-27T05:22:53.050Z,2.07
2018-11-27T05:25:21.907Z,2.03
2018-11-27T05:27:52.104Z,2.07
2018-11-27T05:30:22.018Z,2.08
2018-11-27T05:32:50.933Z,2.07
2018-11-27T05:35:21.443Z,2.10
2018-11-27T05:37:50.824Z,2.11
2018-11-27T05:40:20.867Z,2.11
2018-11-27T05:42:51.999Z,2.11
2018-11-27T05:45:21.699Z,2.12
2018-11-27T05:47:50.584Z,2.13
2018-11-27T05:50:19.646Z,2.15
2018-11-27T05:52:48.643Z,2.14
2018-11-27T05:55:17.943Z,2.14
2018-11-27T05:57:48.358Z,2.13
2018-11-27T06:00:22.224Z,2.11
2018-11-27T06:02:52.338Z,2.15
2018-11-27T06:05:22.203Z,2.17
2018-11-27T06:07:51.045Z,2.15
2018-11-27T06:10:20.952Z,2.12
2018-11-27T06:12:49.852Z,2.15
2018-11-27T06:15:19.711Z,2.12
2018-11-27T06:17:52.659Z,2.06
2018-11-27T06:20:22.159Z,2.11
2018-11-27T06:22:51.363Z,2.06
2018-11-27T06:25:22.055Z,2.09
2018-11-27T06:27:54.149Z,2.09
2018-11-27T06:30:24.419Z,2.05
2018-11-27T06:32:53.273Z,2.02
2018-11-27T06:35:26.134Z,1.98
2018-11-27T06:37:54.979Z,2.03
2018-11-27T06:40:26.199Z,1.97
2018-11-27T06:42:55.046Z,1.97
2018-11-27T06:45:24.278Z,1.99
2018-11-27T06:47:53.464Z,1.95
2018-11-27T06:50:22.855Z,1.98
2018-11-27T06:52:51.798Z,1.93
2018-11-27T06:55:21.687Z,1.95
2018-11-27T06:57:50.886Z,1.97
2018-11-27T07:00:23.046Z,2.01
2018-11-27T07:02:51.922Z,2.02
2018-11-27T07:05:20.775Z,2.04
2018-11-27T07:07:49.642Z,2.07
2018-11-27T07:10:20.649Z,2.07
2018-11-27T07:12:51.068Z,2.15
2018-11-27T07:15:21.085Z,2.25
2018-11-27T07:17:49.936Z,2.25
2018-11-27T07:20:18.908Z,2.24
2018-11-27T07:22:47.739Z,2.28
2018-11-27T07:25:17.103Z,2.31
2018-11-27T07:27:48.151Z,2.40
2018-11-27T07:30:18.107Z,2.41
2018-11-27T07:32:47.003Z,2.39
2018-11-27T07:35:16.617Z,2.47
2018-11-27T07:37:45.508Z,2.42
2018-11-27T07:40:17.276Z,2.46
2018-11-27T07:42:46.460Z,2.39
2018-11-27T07:45:16.356Z,2.41
2018-11-27T07:47:45.324Z,2.38
2018-11-27T07:50:14.984Z,2.42
2018-11-27T07:52:43.893Z,2.42
2018-11-27T07:55:14.796Z,2.42
2018-11-27T07:57:43.695Z,2.50
2018-11-27T08:00:15.393Z,2.49
2018-11-27T08:02:46.290Z,2.50
2018-11-27T08:05:19.268Z,2.52
2018-11-27T08:07:49.594Z,2.63
2018-11-27T08:10:19.586Z,2.68
2018-11-27T08:12:48.498Z,2.70
2018-11-27T08:15:18.533Z,2.77
2018-11-27T08:17:47.359Z,2.86
2018-11-27T08:20:24.955Z,2.79
2018-11-27T08:22:53.841Z,2.85
2018-11-27T08:25:23.571Z,2.76
2018-11-27T08:27:52.523Z,2.84
2018-11-27T08:30:21.883Z,2.83
2018-11-27T08:32:51.091Z,2.82
2018-11-27T08:35:23.119Z,2.74
2018-11-27T08:37:53.942Z,2.72
2018-11-27T08:40:24.688Z,2.83
2018-11-27T08:42:53.531Z,2.89
2018-11-27T08:45:23.519Z,2.96
2018-11-27T08:47:54.385Z,3.03
2018-11-27T08:50:24.698Z,3.07
2018-11-27T08:52:54.726Z,3.08
2018-11-27T08:55:42.701Z,3.02
2018-11-27T08:58:15.244Z,3.01
2018-11-27T09:00:44.102Z,2.92
2018-11-27T09:03:12.983Z,2.99
2018-11-27T09:05:41.938Z,2.96
2018-11-27T09:08:10.768Z,3.05
2018-11-27T09:10:39.598Z,3.13
2018-11-27T09:13:08.447Z,3.23
2018-11-27T09:15:37.546Z,3.17
2018-11-27T09:18:16.876Z,3.25
2018-11-27T09:20:45.718Z,3.13
2018-11-27T09:23:14.559Z,3.08
2018-11-27T09:25:43.467Z,3.09
2018-11-27T09:28:12.340Z,3.03
2018-11-27T09:30:41.254Z,3.13
2018-11-27T09:33:10.241Z,3.24
2018-11-27T09:35:39.075Z,3.19
2018-11-27T09:38:08.562Z,3.17
2018-11-27T09:40:37.462Z,3.16
2018-11-27T09:43:06.931Z,3.19
2018-11-27T09:45:36.609Z,3.18
2018-11-27T09:48:05.469Z,3.36
2018-11-27T09:50:34.393Z,3.64
2018-11-27T09:53:03.293Z,3.71
2018-11-27T09:55:32.137Z,3.44
2018-11-27T09:58:00.961Z,3.42
2018-11-27T10:00:31.512Z,3.49
2018-11-27T10:03:02.559Z,3.39
2018-11-27T10:05:31.455Z,3.33
2018-11-27T10:08:00.317Z,3.21
2018-11-27T10:10:29.204Z,3.21
2018-11-27T10:12:58.041Z,3.21
2018-11-27T10:15:27.928Z,3.29
2018-11-27T10:17:58.963Z,3.45
2018-11-27T10:20:29.260Z,3.71
2018-11-27T10:22:58.110Z,3.75
2018-11-27T10:25:27.066Z,3.77
2018-11-27T10:27:55.929Z,3.68
2018-11-27T10:30:25.935Z,3.73
2018-11-27T10:32:55.986Z,3.81
2018-11-27T10:35:34.896Z,3.71
2018-11-27T10:38:03.806Z,3.98
2018-11-27T10:40:32.642Z,4.00
2018-11-27T10:43:01.505Z,4.13
2018-11-27T10:45:30.336Z,3.94
2018-11-27T10:47:59.175Z,4.00
2018-11-27T10:50:28.062Z,4.01
2018-11-27T10:52:56.909Z,4.17
2018-11-27T10:55:26.597Z,4.17
2018-11-27T10:57:55.453Z,4.34
2018-11-27T11:00:33.062Z,4.44
2018-11-27T11:04:06.397Z,4.46
2018-11-27T11:06:35.328Z,4.25
2018-11-27T11:09:07.376Z,4.25
2018-11-27T11:11:36.484Z,4.30
2018-11-27T11:14:05.557Z,4.16
2018-11-27T11:16:34.412Z,4.24
2018-11-27T11:19:03.249Z,4.19
2018-11-27T11:21:32.087Z,4.35
2018-11-27T11:24:00.935Z,4.43
2018-11-27T11:26:29.818Z,4.23
2018-11-27T11:28:58.661Z,4.36
2018-11-27T11:31:27.514Z,4.53
2018-11-27T11:33:56.386Z,4.55
2018-11-27T11:36:25.207Z,4.80
2018-11-27T11:38:54.093Z,4.62
2018-11-27T11:41:22.918Z,5.00
2018-11-27T11:43:51.746Z,5.31
2018-11-27T11:46:20.653Z,5.07
2018-11-27T11:48:49.532Z,5.29
2018-11-27T11:51:18.416Z,5.38
2018-11-27T11:53:47.306Z,5.20
2018-11-27T11:56:16.202Z,5.26
2018-11-27T11:58:45.094Z,5.47
2018-11-27T12:01:14.096Z,5.46
2018-11-27T12:03:42.968Z,5.10
2018-11-27T12:06:11.950Z,5.03
2018-11-27T12:08:40.869Z,4.97
2018-11-27T12:11:09.703Z,4.96
2018-11-27T12:13:38.540Z,4.92
2018-11-27T12:16:07.443Z,4.92
2018-11-27T12:18:36.286Z,4.64
2018-11-27T12:21:05.124Z,4.57
2018-11-27T12:23:33.971Z,4.81
2018-11-27T12:26:02.900Z,4.71
2018-11-27T12:28:33.183Z,4.90
2018-11-27T12:31:02.862Z,4.77
2018-11-27T12:33:31.709Z,4.57
2018-11-27T12:36:00.723Z,4.22
2018-11-27T12:38:29.643Z,4.42
2018-11-27T12:40:58.536Z,4.55
2018-11-27T12:43:27.506Z,4.42
2018-11-27T12:45:56.552Z,4.58
2018-11-27T12:48:25.444Z,4.30
2018-11-27T12:50:54.288Z,4.59
2018-11-27T12:53:23.174Z,4.27
2018-11-27T12:55:51.998Z,4.31
2018-11-27T12:58:21.055Z,4.56
2018-11-27T13:00:50.010Z,4.81
2018-11-27T13:03:18.946Z,5.19
2018-11-27T13:05:48.234Z,5.07
2018-11-27T13:08:21.473Z,4.95
2018-11-27T13:10:50.403Z,5.23
2018-11-27T13:13:19.244Z,5.43
2018-11-27T13:15:48.245Z,5.23
2018-11-27T13:18:17.206Z,5.20
2018-11-27T13:20:46.147Z,5.07
2018-11-27T13:23:15.301Z,5.17
2018-11-27T13:25:43.944Z,5.22
2018-11-27T13:28:14.016Z,4.95
2018-11-27T13:30:59.899Z,4.86
2018-11-27T13:33:39.347Z,4.92
2018-11-27T13:36:08.723Z,5.03
2018-11-27T13:38:37.719Z,4.86
2018-11-27T13:41:06.604Z,4.79
2018-11-27T13:43:35.550Z,4.81
2018-11-27T13:46:04.652Z,4.66
2018-11-27T13:48:33.551Z,4.69
2018-11-27T13:51:02.516Z,4.68
2018-11-27T13:53:31.424Z,4.68
2018-11-27T13:56:00.314Z,4.61
2018-11-27T13:58:29.292Z,4.30
2018-11-27T14:00:58.179Z,4.23
2018-11-27T14:03:27.146Z,4.14
2018-11-27T14:05:56.465Z,4.07
2018-11-27T14:08:25.301Z,3.90
2018-11-27T14:10:54.262Z,3.71
2018-11-27T14:13:23.193Z,3.67
2018-11-27T14:15:52.095Z,3.68
2018-11-27T14:18:21.066Z,3.72
2018-11-27T14:20:49.935Z,3.66
2018-11-27T14:23:18.757Z,3.54
2018-11-27T14:25:47.647Z,3.50
2018-11-27T14:28:16.531Z,3.36
2018-11-27T14:30:45.362Z,3.46
2018-11-27T14:33:14.254Z,3.35
2018-11-27T14:35:43.181Z,3.29
2018-11-27T14:38:12.221Z,3.21
2018-11-27T14:40:41.218Z,3.11
2018-11-27T14:43:10.078Z,3.07
2018-11-27T14:45:38.951Z,3.04
2018-11-27T14:48:08.155Z,2.95
2018-11-27T14:50:37.168Z,2.84
2018-11-27T14:53:06.408Z,2.70
2018-11-27T14:55:35.800Z,2.61
2018-11-27T14:58:04.744Z,2.52
2018-11-27T15:00:33.929Z,2.41
2018-11-27T15:03:02.768Z,2.37
2018-11-27T15:05:37.664Z,2.24
2018-11-27T15:08:08.927Z,2.11
2018-11-27T15:10:37.801Z,2.05
2018-11-27T15:13:07.414Z,2.20
2018-11-27T15:15:36.407Z,2.10
2018-11-27T15:18:06.366Z,1.94
2018-11-27T15:20:35.399Z,1.79
2018-11-27T15:23:04.273Z,1.69
2018-11-27T15:25:33.125Z,1.55
2018-11-27T15:28:02.293Z,1.47
2018-11-27T15:30:33.209Z,1.30
2018-11-27T15:33:02.079Z,1.27
2018-11-27T15:35:30.966Z,1.21
2018-11-27T15:37:59.828Z,1.08
2018-11-27T15:40:29.951Z,1.18
2018-11-27T15:42:59.175Z,1.13
2018-11-27T15:45:30.536Z,1.07
2018-11-27T15:47:59.626Z,1.00
2018-11-27T15:50:28.505Z,0.86
2018-11-27T15:52:57.397Z,0.77
2018-11-27T15:55:30.517Z,0.63
2018-11-27T15:58:00.899Z,0.51
2018-11-27T16:00:29.803Z,0.41
2018-11-27T16:02:58.649Z,0.39
2018-11-27T16:05:27.586Z,0.27
2018-11-27T16:07:56.703Z,0.22
2018-11-27T16:10:25.553Z,0.16
2018-11-27T16:12:54.547Z,0.34
2018-11-27T16:15:23.457Z,0.37
2018-11-27T16:17:52.346Z,0.34
2018-11-27T16:20:22.209Z,0.33
2018-11-27T16:22:52.139Z,0.22
2018-11-27T16:25:23.103Z,0.13
2018-11-27T16:27:52.010Z,0.00
2018-11-27T16:30:27.151Z,-0.07
2018-11-27T16:32:56.047Z,-0.06
2018-11-27T16:35:24.892Z,-0.11
2018-11-27T16:37:55.790Z,-0.06
2018-11-27T16:40:28.096Z,-0.06
2018-11-27T16:42:56.999Z,-0.11
2018-11-27T16:45:25.912Z,-0.11
2018-11-27T16:47:54.806Z,-0.08
2018-11-27T16:50:23.818Z,-0.03
2018-11-27T16:52:52.723Z,0.08
2018-11-27T16:55:22.751Z,0.14
2018-11-27T16:57:51.786Z,0.19
2018-11-27T17:00:23.653Z,0.26
2018-11-27T17:02:53.680Z,0.22
2018-11-27T17:05:22.635Z,0.28
2018-11-27T17:07:51.591Z,0.25
2018-11-27T17:10:21.193Z,0.25
2018-11-27T17:12:51.517Z,0.15
2018-11-27T17:15:21.323Z,0.06
2018-11-27T17:17:50.143Z,0.00
2018-11-27T17:20:37.275Z,-0.09
2018-11-27T17:23:08.015Z,-0.07
2018-11-27T17:25:36.979Z,-0.14
2018-11-27T17:28:13.855Z,-0.32
2018-11-27T17:30:45.374Z,-0.38
2018-11-27T17:33:25.276Z,-0.43
2018-11-27T17:35:54.311Z,-0.53
2018-11-27T17:38:23.195Z,-0.54
2018-11-27T17:40:52.210Z,-0.57
2018-11-27T17:43:21.414Z,-0.72
2018-11-27T17:45:50.264Z,-0.82
2018-11-27T17:48:19.170Z,-0.90
2018-11-27T17:50:48.186Z,-0.95
2018-11-27T17:53:17.022Z,-1.03
2018-11-27T17:55:45.950Z,-1.19
2018-11-27T17:58:14.806Z,-1.12
2018-11-27T18:00:43.644Z,-1.13
2018-11-27T18:03:12.491Z,-1.11
2018-11-27T18:05:41.334Z,-1.18
2018-11-27T18:08:10.362Z,-1.12
2018-11-27T18:10:39.283Z,-1.18
2018-11-27T18:13:08.127Z,-1.24
2018-11-27T18:15:37.774Z,-1.35
2018-11-27T18:18:07.507Z,-1.52
2018-11-27T18:20:36.685Z,-1.58
2018-11-27T18:23:05.721Z,-1.76
2018-11-27T18:25:34.591Z,-1.78
2018-11-27T18:28:03.483Z,-1.81
2018-11-27T18:30:32.390Z,-1.87
2018-11-27T18:33:01.293Z,-1.86
2018-11-27T18:35:30.237Z,-1.87
2018-11-27T18:37:59.071Z,-1.90
2018-11-27T18:40:27.954Z,-1.94
2018-11-27T18:42:56.808Z,-1.90
2018-11-27T18:45:27.192Z,-1.81
2018-11-27T18:47:56.040Z,-1.81
2018-11-27T18:50:26.139Z,-1.76
2018-11-27T18:52:54.996Z,-1.78
2018-11-27T18:55:23.846Z,-1.82
2018-11-27T18:57:52.783Z,-1.85
2018-11-27T19:00:24.010Z,-1.93
2018-11-27T19:02:53.098Z,-1.95
2018-11-27T19:05:21.971Z,-1.84
2018-11-27T19:07:50.906Z,-1.73
2018-11-27T19:10:23.728Z,-1.63
2018-11-27T19:12:52.591Z,-1.76
2018-11-27T19:15:23.731Z,-1.92
2018-11-27T19:17:55.071Z,-2.05
2018-11-27T19:20:23.983Z,-2.06
2018-11-27T19:22:52.863Z,-2.12
2018-11-27T19:25:21.767Z,-2.19
2018-11-27T19:27:50.675Z,-2.26
2018-11-27T19:30:20.875Z,-2.30
2018-11-27T19:32:49.757Z,-2.36
2018-11-27T19:35:25.030Z,-2.28
2018-11-27T19:37:49.490Z,-2.18
2018-11-27T19:40:19.207Z,-2.26
2018-11-27T19:42:48.060Z,-2.31
2018-11-27T19:45:21.089Z,-2.37
2018-11-27T19:47:50.069Z,-2.42
2018-11-27T19:50:18.936Z,-2.31
2018-11-27T19:52:50.478Z,-2.38
2018-11-27T19:55:19.640Z,-2.42
2018-11-27T19:57:48.592Z,-2.47
2018-11-27T20:00:24.517Z,-2.53
2018-11-27T20:02:53.570Z,-2.48
2018-11-27T20:05:23.911Z,-2.46
2018-11-27T20:07:52.874Z,-2.58
2018-11-27T20:10:52.727Z,-2.66
2018-11-27T20:13:21.578Z,-2.58
2018-11-27T20:15:50.435Z,-2.57
2018-11-27T20:18:19.473Z,-2.62
2018-11-27T20:20:48.495Z,-2.65
2018-11-27T20:23:17.331Z,-2.60
2018-11-27T20:25:47.207Z,-2.64
2018-11-27T20:28:16.143Z,-2.57
2018-11-27T20:30:45.265Z,-2.46
2018-11-27T20:33:14.147Z,-2.28
2018-11-27T20:35:43.049Z,-2.19
2018-11-27T20:38:12.206Z,-2.19
2018-11-27T20:40:41.580Z,-2.18
2018-11-27T20:43:10.495Z,-2.20
2018-11-27T20:45:40.743Z,-2.17
2018-11-27T20:48:15.242Z,-2.24
2018-11-27T20:50:44.850Z,-2.28
2018-11-27T20:53:13.704Z,-2.23
2018-11-27T20:55:43.282Z,-2.38
2018-11-27T20:58:12.460Z,-2.35
2018-11-27T21:00:42.955Z,-2.49
2018-11-27T21:03:12.503Z,-2.45
2018-11-27T21:05:42.167Z,-2.31
2018-11-27T21:08:11.061Z,-2.33
2018-11-27T21:10:40.659Z,-2.40
2018-11-27T21:13:10.702Z,-2.46
2018-11-27T21:15:41.727Z,-2.51
2018-11-27T21:18:11.435Z,-2.48
2018-11-27T21:20:41.261Z,-2.46
2018-11-27T21:23:10.124Z,-2.40
2018-11-27T21:25:39.869Z,-2.43
2018-11-27T21:28:10.397Z,-2.40
2018-11-27T21:30:39.227Z,-2.47
2018-11-27T21:33:08.182Z,-2.45
2018-11-27T21:35:37.261Z,-2.51
2018-11-27T21:38:06.553Z,-2.50
2018-11-27T21:40:35.853Z,-2.41
2018-11-27T21:43:05.592Z,-2.44
2018-11-27T21:45:34.554Z,-2.45
2018-11-27T21:48:03.416Z,-2.49
2018-11-27T21:50:37.696Z,-2.41
2018-11-27T21:53:06.768Z,-2.43
2018-11-27T21:55:35.683Z,-2.41
2018-11-27T21:58:04.579Z,-2.41
2018-11-27T22:00:33.545Z,-2.36
2018-11-27T22:03:02.711Z,-2.25
2018-11-27T22:05:31.652Z,-2.25
2018-11-27T22:08:00.513Z,-2.13
2018-11-27T22:10:29.367Z,-2.16
2018-11-27T22:12:58.919Z,-2.14
2018-11-27T22:15:32.307Z,-2.24
2018-11-27T22:18:01.303Z,-2.23
2018-11-27T22:20:30.193Z,-2.27
2018-11-27T22:22:59.084Z,-2.26
2018-11-27T22:25:28.998Z,-2.31
2018-11-27T22:27:58.460Z,-2.24
2018-11-27T22:30:28.386Z,-2.12
2018-11-27T22:32:58.227Z,-2.18
2018-11-27T22:35:27.454Z,-2.30
2018-11-27T22:37:57.218Z,-2.38
2018-11-27T22:40:26.884Z,-2.47
2018-11-27T22:42:56.527Z,-2.39
2018-11-27T22:45:31.525Z,-2.45
2018-11-27T22:48:00.959Z,-2.45
2018-11-27T22:50:30.161Z,-2.58
2018-11-27T22:52:59.898Z,-2.62
2018-11-27T22:55:28.746Z,-2.56
2018-11-27T22:57:57.588Z,-2.71
2018-11-27T23:00:32.456Z,-2.78
2018-11-27T23:03:01.461Z,-2.77
2018-11-27T23:05:30.399Z,-2.68
2018-11-27T23:07:59.415Z,-2.74
2018-11-27T23:10:29.721Z,-2.65
2018-11-27T23:12:58.708Z,-2.48
2018-11-27T23:15:27.555Z,-2.63
2018-11-27T23:17:56.487Z,-2.69
2018-11-27T23:20:25.381Z,-2.75
2018-11-27T23:22:54.283Z,-2.87
2018-11-27T23:25:23.375Z,-2.83
2018-11-27T23:27:52.255Z,-2.90
2018-11-27T23:30:23.447Z,-2.79
2018-11-27T23:32:52.332Z,-2.85
2018-11-27T23:35:21.200Z,-2.84
2018-11-27T23:37:50.127Z,-3.00
2018-11-27T23:40:20.860Z,-2.92
2018-11-27T23:42:49.959Z,-2.85
2018-11-27T23:45:23.066Z,-2.85
2018-11-27T23:47:51.940Z,-2.88
2018-11-27T23:50:21.735Z,-2.94
2018-11-27T23:52:50.715Z,-3.05
2018-11-27T23:55:20.231Z,-2.99
2018-11-27T23:57:49.333Z,-3.05
